Terminal Aerodrome Forecast
Issued by NWS La Crosse, WI

Home | Current Version | Previous Version | Text Only | Print | Product List | Glossary On
Versions: 1 2 3 4 5 6 7 8 9 10 11 12 13 14
000
FTUS43 KARX 251120
TAFLSE
TAF
KLSE 251120Z 2512/2612 16007KT P6SM BKN090
     FM251800 14006KT P6SM VCSH BKN070
     FM260000 07005KT P6SM BKN050
     FM260400 10005KT P6SM -SHRA OVC030
     FM260600 11006KT 6SM -SHRA OVC010=

USA.gov is the U.S. government's official web portal to all federal, state and local government web resources and services.